Search for airport 
image banner adimage banner adimage banner ad
image banner ad

KWAY - Greene County

Located in Waynesburg, United States

ICAO - WAY, IATA - WAY

Data provided by Airmate  

General information

Coordinates: N39°54'4" W80°7'50"
Elevation is 1069 feet MSL.
Magnetic variation is -09° East
View others Airports in Pennsylvania

Operational data

Special qualification required
Current time UTC:
Current local time:
Weather at : KAFJ - Washington County ( 29 km )
METAR: KAFJ 091356Z AUTO 09008KT 10SM -RA BKN044 OVC050 05/04 A2998 RMK AO2 PRESFR SLP160 P0010 T00500044
View NOTAMs / SUP AIP / TFR affecting this airport [VIEW]
Communications frequencies: [VIEW]

Runways:

RWY identifierQFULength (ft)Width (ft)SurfaceLDA (ft)
09350075ASPH
27350075ASPH

Airport contact information

Address: Waynesburg United States

Other aviation service providers

Flight schools

Flight Level Aviation, Inc.

Flight Level Aviation, Inc.
rkaplan@flyimc.com+1(724)880-2948

Satellite view of KWAY